sensor_id;sensor_type;location;lat;lon;timestamp;temperature;humidity
21163;DHT22;10739;52.198;20.908;2023-04-03T00:01:16;1.90;99.90
21163;DHT22;10739;52.198;20.908;2023-04-03T00:03:42;1.90;99.90
21163;DHT22;10739;52.198;20.908;2023-04-03T00:06:10;1.80;99.90
21163;DHT22;10739;52.198;20.908;2023-04-03T00:08:38;1.80;99.90
21163;DHT22;10739;52.198;20.908;2023-04-03T00:11:05;1.70;99.90
21163;DHT22;10739;52.198;20.908;2023-04-03T00:13:33;1.70;99.90
21163;DHT22;10739;52.198;20.908;2023-04-03T00:16:00;1.70;99.90
21163;DHT22;10739;52.198;20.908;2023-04-03T00:18:27;1.60;99.90
21163;DHT22;10739;52.198;20.908;2023-04-03T00:20:53;1.60;99.90
21163;DHT22;10739;52.198;20.908;2023-04-03T00:23:20;1.50;99.90
21163;DHT22;10739;52.198;20.908;2023-04-03T00:25:47;1.50;99.90
21163;DHT22;10739;52.198;20.908;2023-04-03T00:28:14;1.50;99.90
21163;DHT22;10739;52.198;20.908;2023-04-03T00:30:40;1.40;99.90
21163;DHT22;10739;52.198;20.908;2023-04-03T00:33:07;1.40;99.90
21163;DHT22;10739;52.198;20.908;2023-04-03T00:35:34;1.30;99.90
21163;DHT22;10739;52.198;20.908;2023-04-03T00:38:01;1.30;99.90
21163;DHT22;10739;52.198;20.908;2023-04-03T00:40:27;1.20;99.90
21163;DHT22;10739;52.198;20.908;2023-04-03T00:42:59;1.20;99.90
21163;DHT22;10739;52.198;20.908;2023-04-03T00:48:11;1.10;99.90
21163;DHT22;10739;52.198;20.908;2023-04-03T00:50:42;1.10;99.90
21163;DHT22;10739;52.198;20.908;2023-04-03T00:53:21;1.10;99.90
21163;DHT22;10739;52.198;20.908;2023-04-03T00:55:52;1.00;99.90
21163;DHT22;10739;52.198;20.908;2023-04-03T00:58:26;1.00;99.90
21163;DHT22;10739;52.198;20.908;2023-04-03T01:01:03;1.00;99.90
21163;DHT22;10739;52.198;20.908;2023-04-03T01:03:33;0.90;99.90
21163;DHT22;10739;52.198;20.908;2023-04-03T01:06:01;0.90;99.90
21163;DHT22;10739;52.198;20.908;2023-04-03T01:08:27;0.90;99.90
21163;DHT22;10739;52.198;20.908;2023-04-03T01:10:54;0.90;99.90
21163;DHT22;10739;52.198;20.908;2023-04-03T01:13:25;0.80;99.90
21163;DHT22;10739;52.198;20.908;2023-04-03T01:15:56;0.80;99.90
21163;DHT22;10739;52.198;20.908;2023-04-03T01:18:34;0.80;99.90
21163;DHT22;10739;52.198;20.908;2023-04-03T01:21:36;0.80;99.90
21163;DHT22;10739;52.198;20.908;2023-04-03T01:24:34;0.70;99.90
21163;DHT22;10739;52.198;20.908;2023-04-03T01:27:10;0.70;99.90
21163;DHT22;10739;52.198;20.908;2023-04-03T01:29:42;0.60;99.90
21163;DHT22;10739;52.198;20.908;2023-04-03T01:32:19;0.60;99.90
21163;DHT22;10739;52.198;20.908;2023-04-03T01:34:46;0.60;99.90
21163;DHT22;10739;52.198;20.908;2023-04-03T01:37:13;0.60;99.90
21163;DHT22;10739;52.198;20.908;2023-04-03T01:39:39;0.50;99.90
21163;DHT22;10739;52.198;20.908;2023-04-03T01:42:05;0.50;99.90
21163;DHT22;10739;52.198;20.908;2023-04-03T01:44:32;0.50;99.90
21163;DHT22;10739;52.198;20.908;2023-04-03T01:46:58;0.50;99.90
21163;DHT22;10739;52.198;20.908;2023-04-03T01:49:25;0.40;99.90
21163;DHT22;10739;52.198;20.908;2023-04-03T01:51:51;0.40;99.90
21163;DHT22;10739;52.198;20.908;2023-04-03T01:54:17;0.40;99.90
21163;DHT22;10739;52.198;20.908;2023-04-03T01:56:43;0.40;99.90
21163;DHT22;10739;52.198;20.908;2023-04-03T01:59:10;0.30;99.90
21163;DHT22;10739;52.198;20.908;2023-04-03T02:01:36;0.30;99.90
21163;DHT22;10739;52.198;20.908;2023-04-03T02:04:02;0.30;99.90
21163;DHT22;10739;52.198;20.908;2023-04-03T02:06:29;0.30;99.90
21163;DHT22;10739;52.198;20.908;2023-04-03T02:08:55;0.30;99.90
21163;DHT22;10739;52.198;20.908;2023-04-03T02:11:21;0.30;99.90
21163;DHT22;10739;52.198;20.908;2023-04-03T02:13:48;0.30;99.90
21163;DHT22;10739;52.198;20.908;2023-04-03T02:16:14;0.20;99.90
21163;DHT22;10739;52.198;20.908;2023-04-03T02:18:41;0.20;99.90
21163;DHT22;10739;52.198;20.908;2023-04-03T02:21:07;0.10;99.90
21163;DHT22;10739;52.198;20.908;2023-04-03T02:23:34;0.10;99.90
21163;DHT22;10739;52.198;20.908;2023-04-03T02:26:13;0.10;99.90
21163;DHT22;10739;52.198;20.908;2023-04-03T02:28:40;0.10;99.90
21163;DHT22;10739;52.198;20.908;2023-04-03T02:31:07;0.10;99.90
21163;DHT22;10739;52.198;20.908;2023-04-03T02:33:35;0.00;99.90
21163;DHT22;10739;52.198;20.908;2023-04-03T02:36:04;0.00;99.90
21163;DHT22;10739;52.198;20.908;2023-04-03T02:38:31;0.00;99.90
21163;DHT22;10739;52.198;20.908;2023-04-03T02:41:08;0.00;99.90
21163;DHT22;10739;52.198;20.908;2023-04-03T02:43:36;-0.10;99.90
21163;DHT22;10739;52.198;20.908;2023-04-03T02:46:04;-0.10;99.90
21163;DHT22;10739;52.198;20.908;2023-04-03T02:48:31;-0.10;99.90
21163;DHT22;10739;52.198;20.908;2023-04-03T02:50:57;-0.10;99.90
21163;DHT22;10739;52.198;20.908;2023-04-03T02:53:23;-0.20;99.90
21163;DHT22;10739;52.198;20.908;2023-04-03T02:55:50;-0.10;99.90
21163;DHT22;10739;52.198;20.908;2023-04-03T02:58:16;-0.10;99.90
21163;DHT22;10739;52.198;20.908;2023-04-03T03:00:42;-0.20;99.90
21163;DHT22;10739;52.198;20.908;2023-04-03T03:03:09;-0.20;99.90
21163;DHT22;10739;52.198;20.908;2023-04-03T03:05:35;-0.20;99.90
21163;DHT22;10739;52.198;20.908;2023-04-03T03:08:02;-0.30;99.90
21163;DHT22;10739;52.198;20.908;2023-04-03T03:10:28;-0.30;99.90
21163;DHT22;10739;52.198;20.908;2023-04-03T03:12:54;-0.30;99.90
21163;DHT22;10739;52.198;20.908;2023-04-03T03:15:21;-0.30;99.90
21163;DHT22;10739;52.198;20.908;2023-04-03T03:17:47;-0.30;99.90
21163;DHT22;10739;52.198;20.908;2023-04-03T03:20:13;-0.40;99.90
21163;DHT22;10739;52.198;20.908;2023-04-03T03:22:40;-0.40;99.90
21163;DHT22;10739;52.198;20.908;2023-04-03T03:25:07;-0.40;99.90
21163;DHT22;10739;52.198;20.908;2023-04-03T03:27:34;-0.40;99.90
21163;DHT22;10739;52.198;20.908;2023-04-03T03:30:00;-0.50;99.90
21163;DHT22;10739;52.198;20.908;2023-04-03T03:32:26;-0.40;99.90
21163;DHT22;10739;52.198;20.908;2023-04-03T03:34:53;-0.50;99.90
21163;DHT22;10739;52.198;20.908;2023-04-03T03:37:19;-0.50;99.90
21163;DHT22;10739;52.198;20.908;2023-04-03T03:39:45;-0.60;99.90
21163;DHT22;10739;52.198;20.908;2023-04-03T03:42:12;-0.60;99.90
21163;DHT22;10739;52.198;20.908;2023-04-03T03:44:38;-0.60;99.90
21163;DHT22;10739;52.198;20.908;2023-04-03T03:47:04;-0.60;99.90
21163;DHT22;10739;52.198;20.908;2023-04-03T03:49:31;-0.60;99.90
21163;DHT22;10739;52.198;20.908;2023-04-03T03:51:58;-0.70;99.90
21163;DHT22;10739;52.198;20.908;2023-04-03T03:54:24;-0.70;99.90
21163;DHT22;10739;52.198;20.908;2023-04-03T03:56:50;-0.70;99.90
21163;DHT22;10739;52.198;20.908;2023-04-03T03:59:17;-0.70;99.90
21163;DHT22;10739;52.198;20.908;2023-04-03T04:01:43;-0.70;99.90
21163;DHT22;10739;52.198;20.908;2023-04-03T04:04:09;-0.80;99.90
21163;DHT22;10739;52.198;20.908;2023-04-03T04:06:36;-0.80;99.90
21163;DHT22;10739;52.198;20.908;2023-04-03T04:09:02;-0.80;99.90
21163;DHT22;10739;52.198;20.908;2023-04-03T04:11:28;-0.80;99.90
21163;DHT22;10739;52.198;20.908;2023-04-03T04:13:55;-0.90;99.90
21163;DHT22;10739;52.198;20.908;2023-04-03T04:16:21;-0.90;99.90
21163;DHT22;10739;52.198;20.908;2023-04-03T04:18:47;-0.90;99.90
21163;DHT22;10739;52.198;20.908;2023-04-03T04:21:13;-0.90;99.90
21163;DHT22;10739;52.198;20.908;2023-04-03T04:23:40;-1.00;99.90
21163;DHT22;10739;52.198;20.908;2023-04-03T04:26:06;-1.00;99.90
21163;DHT22;10739;52.198;20.908;2023-04-03T04:28:32;-1.00;99.90
21163;DHT22;10739;52.198;20.908;2023-04-03T04:30:58;-1.00;99.90
21163;DHT22;10739;52.198;20.908;2023-04-03T04:33:25;-1.10;99.90
21163;DHT22;10739;52.198;20.908;2023-04-03T04:35:51;-1.00;99.90
21163;DHT22;10739;52.198;20.908;2023-04-03T04:38:18;-1.10;99.90
21163;DHT22;10739;52.198;20.908;2023-04-03T04:40:44;-1.10;99.90
21163;DHT22;10739;52.198;20.908;2023-04-03T04:43:10;-1.10;99.90
21163;DHT22;10739;52.198;20.908;2023-04-03T04:45:41;-1.00;99.90
21163;DHT22;10739;52.198;20.908;2023-04-03T04:48:08;-1.00;99.90
21163;DHT22;10739;52.198;20.908;2023-04-03T04:50:34;-1.00;99.90
21163;DHT22;10739;52.198;20.908;2023-04-03T04:53:01;-1.00;99.90
21163;DHT22;10739;52.198;20.908;2023-04-03T04:55:27;-1.00;99.90
21163;DHT22;10739;52.198;20.908;2023-04-03T04:57:53;-0.90;99.90
21163;DHT22;10739;52.198;20.908;2023-04-03T05:00:20;-0.90;99.90
21163;DHT22;10739;52.198;20.908;2023-04-03T05:02:46;-0.90;99.90
21163;DHT22;10739;52.198;20.908;2023-04-03T05:05:12;-0.90;99.90
21163;DHT22;10739;52.198;20.908;2023-04-03T05:07:39;-0.80;99.90
21163;DHT22;10739;52.198;20.908;2023-04-03T05:10:06;-0.80;99.90
21163;DHT22;10739;52.198;20.908;2023-04-03T05:12:34;-0.80;99.90
21163;DHT22;10739;52.198;20.908;2023-04-03T05:15:00;-0.80;99.90
21163;DHT22;10739;52.198;20.908;2023-04-03T05:17:35;-0.80;99.90
21163;DHT22;10739;52.198;20.908;2023-04-03T05:20:06;-0.70;99.90
21163;DHT22;10739;52.198;20.908;2023-04-03T05:22:32;-0.70;99.90
21163;DHT22;10739;52.198;20.908;2023-04-03T05:24:59;-0.70;99.90
21163;DHT22;10739;52.198;20.908;2023-04-03T05:27:25;-0.70;99.90
21163;DHT22;10739;52.198;20.908;2023-04-03T05:29:54;-0.60;99.90
21163;DHT22;10739;52.198;20.908;2023-04-03T05:32:22;-0.60;99.90
21163;DHT22;10739;52.198;20.908;2023-04-03T05:34:49;-0.50;99.90
21163;DHT22;10739;52.198;20.908;2023-04-03T05:37:16;-0.50;99.90
21163;DHT22;10739;52.198;20.908;2023-04-03T05:39:43;-0.40;99.90
21163;DHT22;10739;52.198;20.908;2023-04-03T05:42:10;-0.40;99.90
21163;DHT22;10739;52.198;20.908;2023-04-03T05:44:38;-0.30;99.90
21163;DHT22;10739;52.198;20.908;2023-04-03T05:47:07;-0.30;99.90
21163;DHT22;10739;52.198;20.908;2023-04-03T05:49:34;-0.30;99.90
21163;DHT22;10739;52.198;20.908;2023-04-03T05:52:01;-0.30;99.90
21163;DHT22;10739;52.198;20.908;2023-04-03T05:54:29;-0.30;99.90
21163;DHT22;10739;52.198;20.908;2023-04-03T05:56:56;-0.30;99.90
21163;DHT22;10739;52.198;20.908;2023-04-03T05:59:22;-0.30;99.90
21163;DHT22;10739;52.198;20.908;2023-04-03T06:01:48;0.90;99.90
21163;DHT22;10739;52.198;20.908;2023-04-03T06:04:15;-0.30;99.90
21163;DHT22;10739;52.198;20.908;2023-04-03T06:06:50;-0.30;99.90
21163;DHT22;10739;52.198;20.908;2023-04-03T06:09:24;-0.30;99.90
21163;DHT22;10739;52.198;20.908;2023-04-03T06:11:52;-0.30;99.90
21163;DHT22;10739;52.198;20.908;2023-04-03T06:14:19;-0.30;99.90
21163;DHT22;10739;52.198;20.908;2023-04-03T06:16:45;-0.30;99.90
21163;DHT22;10739;52.198;20.908;2023-04-03T06:19:12;-0.20;99.90
21163;DHT22;10739;52.198;20.908;2023-04-03T06:21:38;-0.10;99.90
21163;DHT22;10739;52.198;20.908;2023-04-03T06:24:06;0.00;99.90
21163;DHT22;10739;52.198;20.908;2023-04-03T06:26:32;0.10;99.90
21163;DHT22;10739;52.198;20.908;2023-04-03T06:28:59;0.20;99.90
21163;DHT22;10739;52.198;20.908;2023-04-03T06:31:26;0.10;99.90
21163;DHT22;10739;52.198;20.908;2023-04-03T06:33:52;0.10;99.90
21163;DHT22;10739;52.198;20.908;2023-04-03T06:36:19;0.00;99.90
21163;DHT22;10739;52.198;20.908;2023-04-03T06:38:47;0.00;99.90
21163;DHT22;10739;52.198;20.908;2023-04-03T06:41:14;0.00;99.90
21163;DHT22;10739;52.198;20.908;2023-04-03T06:43:40;0.20;99.90
21163;DHT22;10739;52.198;20.908;2023-04-03T06:46:08;0.20;99.90
21163;DHT22;10739;52.198;20.908;2023-04-03T06:48:42;0.30;99.90
21163;DHT22;10739;52.198;20.908;2023-04-03T06:51:20;0.40;99.90
21163;DHT22;10739;52.198;20.908;2023-04-03T06:53:52;0.50;99.90
21163;DHT22;10739;52.198;20.908;2023-04-03T06:56:20;0.50;99.90
21163;DHT22;10739;52.198;20.908;2023-04-03T06:58:47;0.60;99.90
21163;DHT22;10739;52.198;20.908;2023-04-03T07:01:16;0.80;99.90
21163;DHT22;10739;52.198;20.908;2023-04-03T07:03:45;0.90;99.90
21163;DHT22;10739;52.198;20.908;2023-04-03T07:06:15;1.60;99.90
21163;DHT22;10739;52.198;20.908;2023-04-03T07:08:43;2.50;99.90
21163;DHT22;10739;52.198;20.908;2023-04-03T07:11:11;3.30;99.90
21163;DHT22;10739;52.198;20.908;2023-04-03T07:13:38;3.70;99.90
21163;DHT22;10739;52.198;20.908;2023-04-03T07:16:05;4.70;99.80
21163;DHT22;10739;52.198;20.908;2023-04-03T07:18:32;3.90;95.50
21163;DHT22;10739;52.198;20.908;2023-04-03T07:20:59;3.30;98.20
21163;DHT22;10739;52.198;20.908;2023-04-03T07:23:26;3.00;99.90
21163;DHT22;10739;52.198;20.908;2023-04-03T07:25:54;3.00;99.90
21163;DHT22;10739;52.198;20.908;2023-04-03T07:28:21;3.00;99.90
21163;DHT22;10739;52.198;20.908;2023-04-03T07:30:53;2.80;99.90
21163;DHT22;10739;52.198;20.908;2023-04-03T07:33:32;2.70;99.90
21163;DHT22;10739;52.198;20.908;2023-04-03T07:35:58;2.60;99.90
21163;DHT22;10739;52.198;20.908;2023-04-03T07:38:25;2.60;99.90
21163;DHT22;10739;52.198;20.908;2023-04-03T07:40:52;2.90;99.90
21163;DHT22;10739;52.198;20.908;2023-04-03T07:43:20;3.10;99.90
21163;DHT22;10739;52.198;20.908;2023-04-03T07:45:48;3.20;99.90
21163;DHT22;10739;52.198;20.908;2023-04-03T07:48:19;3.40;99.90
21163;DHT22;10739;52.198;20.908;2023-04-03T07:50:47;3.40;99.90
21163;DHT22;10739;52.198;20.908;2023-04-03T07:53:14;3.30;99.00
21163;DHT22;10739;52.198;20.908;2023-04-03T07:55:41;3.50;99.90
21163;DHT22;10739;52.198;20.908;2023-04-03T07:58:16;3.50;98.40
21163;DHT22;10739;52.198;20.908;2023-04-03T08:00:44;3.60;96.20
21163;DHT22;10739;52.198;20.908;2023-04-03T08:03:11;3.60;98.80
21163;DHT22;10739;52.198;20.908;2023-04-03T08:05:40;3.70;96.30
21163;DHT22;10739;52.198;20.908;2023-04-03T08:08:09;3.60;93.40
21163;DHT22;10739;52.198;20.908;2023-04-03T08:10:38;3.70;92.40
21163;DHT22;10739;52.198;20.908;2023-04-03T08:13:04;3.60;94.00
21163;DHT22;10739;52.198;20.908;2023-04-03T08:15:31;3.40;92.70
21163;DHT22;10739;52.198;20.908;2023-04-03T08:17:59;3.60;96.60
21163;DHT22;10739;52.198;20.908;2023-04-03T08:20:26;4.10;92.60
21163;DHT22;10739;52.198;20.908;2023-04-03T08:22:54;4.40;87.80
21163;DHT22;10739;52.198;20.908;2023-04-03T08:25:21;4.20;85.90
21163;DHT22;10739;52.198;20.908;2023-04-03T08:27:48;4.60;83.10
21163;DHT22;10739;52.198;20.908;2023-04-03T08:30:14;5.30;75.70
21163;DHT22;10739;52.198;20.908;2023-04-03T08:32:41;5.90;70.90
21163;DHT22;10739;52.198;20.908;2023-04-03T08:35:09;6.60;72.10
21163;DHT22;10739;52.198;20.908;2023-04-03T08:37:36;6.80;64.40
21163;DHT22;10739;52.198;20.908;2023-04-03T08:40:06;6.00;63.90
21163;DHT22;10739;52.198;20.908;2023-04-03T08:48:20;5.90;66.80
21163;DHT22;10739;52.198;20.908;2023-04-03T08:50:59;7.20;62.40
21163;DHT22;10739;52.198;20.908;2023-04-03T08:53:34;8.20;57.60
21163;DHT22;10739;52.198;20.908;2023-04-03T08:56:09;8.50;54.40
21163;DHT22;10739;52.198;20.908;2023-04-03T08:58:54;9.00;55.50
21163;DHT22;10739;52.198;20.908;2023-04-03T09:01:40;8.50;52.30
21163;DHT22;10739;52.198;20.908;2023-04-03T09:04:12;6.90;55.50
21163;DHT22;10739;52.198;20.908;2023-04-03T09:06:44;6.80;59.40
21163;DHT22;10739;52.198;20.908;2023-04-03T09:09:30;7.80;54.70
21163;DHT22;10739;52.198;20.908;2023-04-03T09:12:25;8.10;52.60
21163;DHT22;10739;52.198;20.908;2023-04-03T09:17:45;8.50;53.00
21163;DHT22;10739;52.198;20.908;2023-04-03T09:20:54;8.30;52.20
21163;DHT22;10739;52.198;20.908;2023-04-03T09:23:44;7.00;55.70
21163;DHT22;10739;52.198;20.908;2023-04-03T09:26:17;7.10;54.40
21163;DHT22;10739;52.198;20.908;2023-04-03T09:29:00;8.30;53.40
21163;DHT22;10739;52.198;20.908;2023-04-03T09:31:40;9.30;50.10
21163;DHT22;10739;52.198;20.908;2023-04-03T09:34:31;9.10;49.20
21163;DHT22;10739;52.198;20.908;2023-04-03T09:37:02;9.10;49.30
21163;DHT22;10739;52.198;20.908;2023-04-03T09:39:48;8.90;47.90
21163;DHT22;10739;52.198;20.908;2023-04-03T09:42:24;8.00;51.30
21163;DHT22;10739;52.198;20.908;2023-04-03T09:44:57;7.60;52.10
21163;DHT22;10739;52.198;20.908;2023-04-03T09:52:47;10.30;50.60
21163;DHT22;10739;52.198;20.908;2023-04-03T09:57:57;11.00;47.90
21163;DHT22;10739;52.198;20.908;2023-04-03T10:00:37;11.30;45.10
21163;DHT22;10739;52.198;20.908;2023-04-03T10:03:26;10.20;47.20
21163;DHT22;10739;52.198;20.908;2023-04-03T10:05:58;10.20;47.80
21163;DHT22;10739;52.198;20.908;2023-04-03T10:08:34;10.00;47.50
21163;DHT22;10739;52.198;20.908;2023-04-03T10:11:17;10.60;48.60
21163;DHT22;10739;52.198;20.908;2023-04-03T10:13:58;11.50;48.90
21163;DHT22;10739;52.198;20.908;2023-04-03T10:16:41;12.40;43.20
21163;DHT22;10739;52.198;20.908;2023-04-03T10:25:08;11.70;42.00
21163;DHT22;10739;52.198;20.908;2023-04-03T10:36:33;5.50;52.80
21163;DHT22;10739;52.198;20.908;2023-04-03T10:48:49;9.20;49.30
21163;DHT22;10739;52.198;20.908;2023-04-03T10:51:48;8.90;49.10
21163;DHT22;10739;52.198;20.908;2023-04-03T10:57:43;7.50;51.10
21163;DHT22;10739;52.198;20.908;2023-04-03T11:00:25;6.50;50.70
21163;DHT22;10739;52.198;20.908;2023-04-03T11:06:28;5.30;54.90
21163;DHT22;10739;52.198;20.908;2023-04-03T11:09:03;5.10;56.70
21163;DHT22;10739;52.198;20.908;2023-04-03T11:11:44;4.90;57.80
21163;DHT22;10739;52.198;20.908;2023-04-03T11:22:29;5.00;56.20
21163;DHT22;10739;52.198;20.908;2023-04-03T11:27:57;5.10;58.50
21163;DHT22;10739;52.198;20.908;2023-04-03T11:30:39;4.80;57.10
21163;DHT22;10739;52.198;20.908;2023-04-03T11:36:25;5.10;57.10
21163;DHT22;10739;52.198;20.908;2023-04-03T11:38:59;5.20;61.40
21163;DHT22;10739;52.198;20.908;2023-04-03T11:41:32;5.20;58.10
21163;DHT22;10739;52.198;20.908;2023-04-03T11:44:25;5.00;58.00
21163;DHT22;10739;52.198;20.908;2023-04-03T11:47:05;4.70;58.20
21163;DHT22;10739;52.198;20.908;2023-04-03T12:16:33;4.90;57.40
21163;DHT22;10739;52.198;20.908;2023-04-03T12:22:14;5.10;59.20
21163;DHT22;10739;52.198;20.908;2023-04-03T12:24:44;5.30;55.80
21163;DHT22;10739;52.198;20.908;2023-04-03T12:46:49;5.40;53.60
21163;DHT22;10739;52.198;20.908;2023-04-03T12:49:35;5.40;55.60
21163;DHT22;10739;52.198;20.908;2023-04-03T12:52:16;5.90;60.80
21163;DHT22;10739;52.198;20.908;2023-04-03T12:54:46;6.30;56.30
21163;DHT22;10739;52.198;20.908;2023-04-03T12:57:20;6.40;55.50
21163;DHT22;10739;52.198;20.908;2023-04-03T12:59:49;6.30;56.90
21163;DHT22;10739;52.198;20.908;2023-04-03T13:02:30;5.90;53.30
21163;DHT22;10739;52.198;20.908;2023-04-03T13:05:06;5.60;54.50
21163;DHT22;10739;52.198;20.908;2023-04-03T13:07:39;5.30;53.50
21163;DHT22;10739;52.198;20.908;2023-04-03T13:12:56;5.30;52.70
21163;DHT22;10739;52.198;20.908;2023-04-03T13:15:30;5.40;53.40
21163;DHT22;10739;52.198;20.908;2023-04-03T13:18:25;5.60;54.90
21163;DHT22;10739;52.198;20.908;2023-04-03T13:21:06;5.70;57.30
21163;DHT22;10739;52.198;20.908;2023-04-03T13:23:40;5.50;56.60
21163;DHT22;10739;52.198;20.908;2023-04-03T13:26:10;5.40;55.00
21163;DHT22;10739;52.198;20.908;2023-04-03T13:28:39;5.40;54.20
21163;DHT22;10739;52.198;20.908;2023-04-03T13:33:52;5.30;55.10
21163;DHT22;10739;52.198;20.908;2023-04-03T13:41:46;6.10;53.80
21163;DHT22;10739;52.198;20.908;2023-04-03T13:46:50;5.80;54.00
21163;DHT22;10739;52.198;20.908;2023-04-03T13:49:27;5.50;56.60
21163;DHT22;10739;52.198;20.908;2023-04-03T13:51:54;5.50;56.20
21163;DHT22;10739;52.198;20.908;2023-04-03T13:54:36;6.00;54.30
21163;DHT22;10739;52.198;20.908;2023-04-03T13:57:13;7.00;52.20
21163;DHT22;10739;52.198;20.908;2023-04-03T13:59:40;7.30;50.40
21163;DHT22;10739;52.198;20.908;2023-04-03T14:07:12;7.50;50.80
21163;DHT22;10739;52.198;20.908;2023-04-03T14:09:39;7.20;50.00
21163;DHT22;10739;52.198;20.908;2023-04-03T14:12:12;7.00;51.50
21163;DHT22;10739;52.198;20.908;2023-04-03T14:15:00;6.80;52.10
21163;DHT22;10739;52.198;20.908;2023-04-03T14:17:27;6.50;51.10
21163;DHT22;10739;52.198;20.908;2023-04-03T14:19:56;6.10;51.20
21163;DHT22;10739;52.198;20.908;2023-04-03T14:22:29;5.90;55.20
21163;DHT22;10739;52.198;20.908;2023-04-03T14:24:58;5.70;54.90
21163;DHT22;10739;52.198;20.908;2023-04-03T14:27:33;5.60;54.60
21163;DHT22;10739;52.198;20.908;2023-04-03T14:30:02;5.50;53.70
21163;DHT22;10739;52.198;20.908;2023-04-03T14:32:30;5.50;58.00
21163;DHT22;10739;52.198;20.908;2023-04-03T14:34:56;5.50;56.70
21163;DHT22;10739;52.198;20.908;2023-04-03T14:37:27;5.40;56.10
21163;DHT22;10739;52.198;20.908;2023-04-03T14:39:56;5.30;55.30
21163;DHT22;10739;52.198;20.908;2023-04-03T14:42:29;5.20;55.90
21163;DHT22;10739;52.198;20.908;2023-04-03T14:48:37;5.10;57.20
21163;DHT22;10739;52.198;20.908;2023-04-03T14:51:03;5.20;56.00
21163;DHT22;10739;52.198;20.908;2023-04-03T14:53:30;5.20;55.70
21163;DHT22;10739;52.198;20.908;2023-04-03T14:55:58;5.10;59.40
21163;DHT22;10739;52.198;20.908;2023-04-03T14:58:25;5.10;57.50
21163;DHT22;10739;52.198;20.908;2023-04-03T15:00:52;5.00;59.10
21163;DHT22;10739;52.198;20.908;2023-04-03T15:03:21;5.00;58.60
21163;DHT22;10739;52.198;20.908;2023-04-03T15:05:49;4.90;58.50
21163;DHT22;10739;52.198;20.908;2023-04-03T15:08:24;4.80;60.60
21163;DHT22;10739;52.198;20.908;2023-04-03T15:10:53;4.80;57.80
21163;DHT22;10739;52.198;20.908;2023-04-03T15:13:21;4.80;59.20
21163;DHT22;10739;52.198;20.908;2023-04-03T15:15:49;4.80;58.60
21163;DHT22;10739;52.198;20.908;2023-04-03T15:18:24;4.80;58.90
21163;DHT22;10739;52.198;20.908;2023-04-03T15:20:53;4.80;59.80
21163;DHT22;10739;52.198;20.908;2023-04-03T15:23:21;4.80;60.90
21163;DHT22;10739;52.198;20.908;2023-04-03T15:25:53;4.80;58.70
21163;DHT22;10739;52.198;20.908;2023-04-03T15:28:25;4.80;60.00
21163;DHT22;10739;52.198;20.908;2023-04-03T15:30:52;4.80;58.30
21163;DHT22;10739;52.198;20.908;2023-04-03T15:33:19;4.70;58.80
21163;DHT22;10739;52.198;20.908;2023-04-03T15:35:45;4.70;58.90
21163;DHT22;10739;52.198;20.908;2023-04-03T15:38:12;4.60;59.00
21163;DHT22;10739;52.198;20.908;2023-04-03T15:40:38;5.20;61.70
21163;DHT22;10739;52.198;20.908;2023-04-03T15:43:06;4.60;59.50
21163;DHT22;10739;52.198;20.908;2023-04-03T15:45:34;4.60;59.20
21163;DHT22;10739;52.198;20.908;2023-04-03T15:48:03;4.50;58.60
21163;DHT22;10739;52.198;20.908;2023-04-03T15:50:32;4.60;60.10
21163;DHT22;10739;52.198;20.908;2023-04-03T15:52:59;4.50;58.70
21163;DHT22;10739;52.198;20.908;2023-04-03T15:55:29;4.50;60.10
21163;DHT22;10739;52.198;20.908;2023-04-03T15:57:57;4.50;60.20
21163;DHT22;10739;52.198;20.908;2023-04-03T16:00:25;4.50;58.50
21163;DHT22;10739;52.198;20.908;2023-04-03T16:03:05;4.40;60.60
21163;DHT22;10739;52.198;20.908;2023-04-03T16:05:36;4.40;62.10
21163;DHT22;10739;52.198;20.908;2023-04-03T16:08:04;4.40;60.90
21163;DHT22;10739;52.198;20.908;2023-04-03T16:10:32;4.40;61.50
21163;DHT22;10739;52.198;20.908;2023-04-03T16:12:58;4.30;62.20
21163;DHT22;10739;52.198;20.908;2023-04-03T16:15:25;4.30;63.20
21163;DHT22;10739;52.198;20.908;2023-04-03T16:17:53;4.30;62.60
21163;DHT22;10739;52.198;20.908;2023-04-03T16:20:20;4.30;63.60
21163;DHT22;10739;52.198;20.908;2023-04-03T16:22:48;4.30;62.60
21163;DHT22;10739;52.198;20.908;2023-04-03T16:25:15;4.20;63.00
21163;DHT22;10739;52.198;20.908;2023-04-03T16:27:41;4.20;61.10
21163;DHT22;10739;52.198;20.908;2023-04-03T16:30:08;4.20;63.80
21163;DHT22;10739;52.198;20.908;2023-04-03T16:32:37;4.20;61.90
21163;DHT22;10739;52.198;20.908;2023-04-03T16:35:05;4.20;65.10
21163;DHT22;10739;52.198;20.908;2023-04-03T16:37:31;4.20;63.70
21163;DHT22;10739;52.198;20.908;2023-04-03T16:39:58;4.20;64.00
21163;DHT22;10739;52.198;20.908;2023-04-03T16:42:25;4.20;64.20
21163;DHT22;10739;52.198;20.908;2023-04-03T16:44:51;4.20;64.10
21163;DHT22;10739;52.198;20.908;2023-04-03T16:47:18;4.10;62.50
21163;DHT22;10739;52.198;20.908;2023-04-03T16:49:46;4.10;62.20
21163;DHT22;10739;52.198;20.908;2023-04-03T16:52:13;4.00;60.70
21163;DHT22;10739;52.198;20.908;2023-04-03T16:54:39;4.00;62.20
21163;DHT22;10739;52.198;20.908;2023-04-03T16:57:06;4.00;61.90
21163;DHT22;10739;52.198;20.908;2023-04-03T16:59:32;4.00;62.10
21163;DHT22;10739;52.198;20.908;2023-04-03T17:01:58;3.90;62.90
21163;DHT22;10739;52.198;20.908;2023-04-03T17:04:25;3.90;63.90
21163;DHT22;10739;52.198;20.908;2023-04-03T17:06:52;3.80;65.40
21163;DHT22;10739;52.198;20.908;2023-04-03T17:09:19;3.80;65.00
21163;DHT22;10739;52.198;20.908;2023-04-03T17:11:46;3.80;65.10
21163;DHT22;10739;52.198;20.908;2023-04-03T17:14:14;3.80;65.90
21163;DHT22;10739;52.198;20.908;2023-04-03T17:16:40;3.80;65.30
21163;DHT22;10739;52.198;20.908;2023-04-03T17:19:07;3.80;66.20
21163;DHT22;10739;52.198;20.908;2023-04-03T17:21:33;3.70;66.00
21163;DHT22;10739;52.198;20.908;2023-04-03T17:24:03;3.70;65.70
21163;DHT22;10739;52.198;20.908;2023-04-03T17:26:34;3.80;66.20
21163;DHT22;10739;52.198;20.908;2023-04-03T17:29:03;3.70;66.10
21163;DHT22;10739;52.198;20.908;2023-04-03T17:31:29;3.80;66.00
21163;DHT22;10739;52.198;20.908;2023-04-03T17:33:56;3.80;66.40
21163;DHT22;10739;52.198;20.908;2023-04-03T17:36:23;3.70;68.20
21163;DHT22;10739;52.198;20.908;2023-04-03T17:38:52;3.70;69.10
21163;DHT22;10739;52.198;20.908;2023-04-03T17:41:18;3.70;68.30
21163;DHT22;10739;52.198;20.908;2023-04-03T17:43:45;3.70;67.90
21163;DHT22;10739;52.198;20.908;2023-04-03T17:46:12;3.60;68.80
21163;DHT22;10739;52.198;20.908;2023-04-03T17:48:39;3.60;66.70
21163;DHT22;10739;52.198;20.908;2023-04-03T17:51:09;3.60;65.90
21163;DHT22;10739;52.198;20.908;2023-04-03T17:53:37;3.60;66.30
21163;DHT22;10739;52.198;20.908;2023-04-03T17:56:08;3.50;66.70
21163;DHT22;10739;52.198;20.908;2023-04-03T17:58:45;3.50;67.20
21163;DHT22;10739;52.198;20.908;2023-04-03T18:03:41;3.50;66.90